Time;durP1;ratioP1;P1;durP2;ratioP2;P2;SDS_P1;SDS_P2;PMS_P1;PMS_P2;Temp;Humidity;BMP_temperature;BMP_pressure;BME280_temperature;BME280_humidity;BME280_pressure;Samples;Min_cycle;Max_cycle;Signal;HPM_P1;HPM_P2
2023/09/13 00:01:21;;;;;;;13.20;8.40;;;;;;;16.14;54.24;99561.48;107236;1262;60408;-42
2023/09/13 00:03:49;;;;;;;13.50;8.90;;;;;;;16.10;54.55;99560.55;107197;1257;73863;-42
2023/09/13 00:06:17;;;;;;;12.00;8.90;;;;;;;16.07;54.30;99558.29;107246;1257;67595;-42
2023/09/13 00:08:45;;;;;;;13.30;8.60;;;;;;;16.03;54.28;99556.55;107203;1257;72738;-42
2023/09/13 00:11:12;;;;;;;13.40;9.20;;;;;;;16.00;54.23;99562.89;107233;1257;60517;-42
2023/09/13 00:13:41;;;;;;;15.20;8.80;;;;;;;15.97;54.69;99563.36;107204;1258;60303;-42
2023/09/13 00:16:09;;;;;;;13.00;8.70;;;;;;;15.95;54.46;99562.96;107217;1258;73907;-42
2023/09/13 00:18:37;;;;;;;12.10;8.80;;;;;;;15.91;54.50;99560.31;107198;1257;67570;-42
2023/09/13 00:21:05;;;;;;;13.40;8.30;;;;;;;15.88;54.74;99558.50;107181;1263;72701;-42
2023/09/13 00:23:32;;;;;;;19.20;8.70;;;;;;;15.84;54.90;99560.61;107200;1257;60572;-42
2023/09/13 00:26:00;;;;;;;12.00;8.60;;;;;;;15.80;54.78;99556.08;107223;1257;60457;-42
2023/09/13 00:28:30;;;;;;;12.50;8.30;;;;;;;15.77;54.75;99552.80;107202;1257;74946;-42
2023/09/13 00:30:58;;;;;;;11.90;8.30;;;;;;;15.75;54.76;99552.24;107212;1262;66869;-42
2023/09/13 00:33:26;;;;;;;13.40;8.50;;;;;;;15.73;54.86;99549.45;107255;1258;71457;-42
2023/09/13 00:35:57;;;;;;;14.40;9.00;;;;;;;15.70;54.89;99545.44;107209;1258;60434;-42
2023/09/13 00:38:25;;;;;;;14.70;8.80;;;;;;;15.67;55.04;99543.80;107200;1257;60325;-42
2023/09/13 00:40:53;;;;;;;14.30;8.40;;;;;;;15.63;54.98;99549.42;107209;1262;73822;-42
2023/09/13 00:43:20;;;;;;;13.20;8.70;;;;;;;15.61;55.19;99547.23;107217;1257;65300;-42
2023/09/13 00:45:48;;;;;;;19.90;8.80;;;;;;;15.58;55.24;99546.30;107217;1257;71243;-42
2023/09/13 00:48:17;;;;;;;12.40;8.20;;;;;;;15.57;55.35;99544.02;107062;1260;60450;-42
2023/09/13 00:50:45;;;;;;;14.30;8.50;;;;;;;15.55;55.72;99545.11;107220;1257;60086;-42
2023/09/13 00:53:21;;;;;;;12.30;8.40;;;;;;;15.52;55.74;99548.94;107297;1257;72658;-42
2023/09/13 00:55:53;;;;;;;10.30;8.40;;;;;;;15.50;55.62;99542.73;107147;1257;67591;-42
2023/09/13 00:58:20;;;;;;;11.50;8.60;;;;;;;15.48;55.71;99539.62;107133;1257;71409;-42
2023/09/13 01:00:49;;;;;;;17.30;9.10;;;;;;;15.46;55.88;99543.42;107103;1257;154231;-42
2023/09/13 01:05:34;;;;;;;14.10;8.30;;;;;;;15.44;56.07;99540.15;104227;1291;601208;-41
2023/09/13 01:08:03;;;;;;;20.10;9.10;;;;;;;15.42;56.07;99541.70;106667;1267;60046;-41
2023/09/13 01:10:30;;;;;;;15.80;8.60;;;;;;;15.41;56.13;99543.03;106654;1267;59321;-41
2023/09/13 01:12:58;;;;;;;13.90;8.90;;;;;;;15.39;56.42;99543.19;106524;1267;71006;-41
2023/09/13 01:15:27;;;;;;;10.70;8.30;;;;;;;15.36;56.49;99542.46;106733;1267;67574;-41
2023/09/13 01:18:05;;;;;;;11.50;9.00;;;;;;;15.33;57.01;99540.98;106706;1266;72650;-41
2023/09/13 01:20:37;;;;;;;14.10;8.50;;;;;;;15.28;56.94;99533.39;106578;1265;59402;-41
2023/09/13 01:23:16;;;;;;;12.40;8.80;;;;;;;15.27;57.12;99534.88;106736;1264;59181;-41
2023/09/13 01:25:53;;;;;;;13.10;8.40;;;;;;;15.23;57.46;99537.45;106723;1265;72247;-41
2023/09/13 01:28:39;;;;;;;12.50;8.70;;;;;;;15.18;57.66;99538.92;106726;1264;66786;-42
2023/09/13 01:31:10;;;;;;;15.50;8.60;;;;;;;15.13;57.70;99534.91;107080;1259;72754;-42
2023/09/13 01:33:38;;;;;;;16.30;9.20;;;;;;;15.08;57.92;99538.09;107026;1262;60088;-42
2023/09/13 01:36:05;;;;;;;13.80;8.80;;;;;;;15.03;58.17;99540.66;107194;1257;60116;-43
2023/09/13 01:38:33;;;;;;;12.00;8.40;;;;;;;14.97;58.31;99542.51;107293;1259;73035;-43
2023/09/13 01:41:25;;;;;;;12.80;8.50;;;;;;;14.93;58.45;99540.14;107211;1258;67602;-40
2023/09/13 01:43:54;;;;;;;11.60;8.60;;;;;;;14.89;58.53;99543.79;107049;1257;71455;-41
2023/09/13 01:46:27;;;;;;;11.80;8.70;;;;;;;14.83;58.75;99542.67;107253;1257;60538;-41
2023/09/13 01:48:56;;;;;;;12.20;8.90;;;;;;;14.77;58.76;99540.23;107255;1259;60638;-41
2023/09/13 01:51:24;;;;;;;12.00;8.50;;;;;;;14.73;58.90;99545.13;107303;1258;73465;-41
2023/09/13 01:53:54;;;;;;;15.90;8.60;;;;;;;14.69;59.03;99545.96;107125;1258;66297;-41
2023/09/13 01:56:22;;;;;;;12.10;8.50;;;;;;;14.65;59.18;99546.25;107249;1256;71413;-41
2023/09/13 01:58:50;;;;;;;12.60;8.70;;;;;;;14.60;59.21;99547.00;107191;1262;60075;-41
2023/09/13 02:01:18;;;;;;;11.60;8.70;;;;;;;14.54;59.31;99544.33;107074;1258;60480;-41
2023/09/13 02:03:45;;;;;;;10.70;8.50;;;;;;;14.50;59.43;99538.75;107253;1261;72892;-41
2023/09/13 02:06:14;;;;;;;12.00;8.80;;;;;;;14.46;59.71;99538.89;107283;1258;67600;-41
2023/09/13 02:08:42;;;;;;;11.90;8.80;;;;;;;14.42;59.73;99537.23;107104;1262;70406;-40
2023/09/13 02:11:10;;;;;;;11.10;8.00;;;;;;;14.42;59.78;99536.91;107306;1260;61719;-41
2023/09/13 02:13:39;;;;;;;13.40;7.80;;;;;;;14.45;59.88;99534.74;107248;1259;60020;-41
2023/09/13 02:16:07;;;;;;;10.40;7.90;;;;;;;14.45;59.88;99538.41;107073;1262;73101;-41
2023/09/13 02:18:35;;;;;;;12.00;8.70;;;;;;;14.43;59.83;99539.48;107206;1260;67568;-41
2023/09/13 02:21:03;;;;;;;11.60;8.60;;;;;;;14.42;59.69;99538.33;107072;1259;71627;-41
2023/09/13 02:23:31;;;;;;;12.30;8.20;;;;;;;14.41;59.80;99535.59;107043;1257;60107;-41
2023/09/13 02:25:58;;;;;;;14.10;8.20;;;;;;;14.39;60.04;99536.41;107090;1259;59546;-41
2023/09/13 02:28:28;;;;;;;13.10;7.90;;;;;;;14.37;60.17;99537.60;107088;1260;71787;-41
2023/09/13 02:30:56;;;;;;;11.90;8.00;;;;;;;14.30;60.19;99529.41;107072;1262;66955;-41
2023/09/13 02:33:24;;;;;;;11.00;8.00;;;;;;;14.32;60.28;99537.84;107335;1253;72517;-41
2023/09/13 02:35:51;;;;;;;17.60;9.40;;;;;;;14.29;60.35;99537.58;107339;1253;60172;-41
2023/09/13 02:38:19;;;;;;;10.70;8.40;;;;;;;14.24;60.48;99534.36;107579;1253;59597;-41
2023/09/13 02:40:47;;;;;;;11.10;8.60;;;;;;;14.19;60.50;99530.27;107552;1253;71811;-40
2023/09/13 02:43:15;;;;;;;13.90;8.60;;;;;;;14.13;60.64;99527.50;107369;1253;67574;-41
2023/09/13 02:45:42;;;;;;;10.50;8.00;;;;;;;14.09;60.69;99529.10;107558;1253;72638;-41
2023/09/13 02:48:11;;;;;;;14.70;8.60;;;;;;;14.05;60.83;99527.74;107517;1258;59563;-41
2023/09/13 02:50:42;;;;;;;12.10;7.80;;;;;;;14.02;60.87;99527.26;107468;1253;59493;-41
2023/09/13 02:53:10;;;;;;;11.90;7.70;;;;;;;14.03;60.84;99527.58;107352;1253;71762;-41
2023/09/13 02:55:38;;;;;;;13.40;8.40;;;;;;;14.07;60.86;99531.20;107562;1253;66300;-41
2023/09/13 02:58:08;;;;;;;10.50;7.80;;;;;;;14.08;60.88;99531.05;107580;1253;72673;-41
2023/09/13 03:00:36;;;;;;;;;;;;;;;14.07;61.03;99533.69;107532;1253;60161;-41
2023/09/13 03:03:04;;;;;;;13.90;8.60;;;;;;;14.05;61.11;99533.45;107498;1253;59852;-42
2023/09/13 03:05:32;;;;;;;13.90;8.60;;;;;;;14.02;61.28;99536.38;107453;1254;72899;-41
2023/09/13 03:08:00;;;;;;;12.00;8.60;;;;;;;14.01;61.32;99536.29;107340;1254;67595;-41
2023/09/13 03:10:28;;;;;;;14.60;8.70;;;;;;;14.00;61.19;99532.77;107300;1256;71946;-42
2023/09/13 03:12:56;;;;;;;11.40;8.50;;;;;;;14.00;60.88;99531.67;107428;1254;59632;-42
2023/09/13 03:15:25;;;;;;;12.10;8.50;;;;;;;14.01;60.82;99531.30;107364;1256;59513;-42
2023/09/13 03:17:52;;;;;;;14.30;8.70;;;;;;;14.01;60.87;99535.42;107336;1254;73035;-41
2023/09/13 03:20:20;;;;;;;12.70;9.50;;;;;;;13.99;60.78;99531.67;107340;1254;66616;-42
2023/09/13 03:22:48;;;;;;;13.60;8.50;;;;;;;13.97;60.86;99532.05;107273;1256;71589;-41
2023/09/13 03:25:17;;;;;;;11.40;8.50;;;;;;;13.95;60.96;99531.41;107274;1256;59629;-42
2023/09/13 03:27:47;;;;;;;12.50;8.50;;;;;;;13.93;61.01;99533.27;107358;1256;59537;-42
2023/09/13 03:30:15;;;;;;;13.90;8.10;;;;;;;13.92;61.13;99534.27;107317;1254;72875;-41
2023/09/13 03:32:43;;;;;;;11.70;8.30;;;;;;;13.97;61.07;99534.15;107280;1254;67914;-42
2023/09/13 03:35:11;;;;;;;11.70;7.90;;;;;;;13.97;61.28;99534.94;107327;1256;72648;-42
2023/09/13 03:37:39;;;;;;;13.30;8.60;;;;;;;13.96;61.12;99541.00;107266;1256;60114;-41
2023/09/13 03:40:07;;;;;;;13.00;8.40;;;;;;;13.94;61.01;99541.07;107309;1256;59745;-42
2023/09/13 03:42:35;;;;;;;14.30;8.40;;;;;;;13.92;61.05;99547.45;107388;1255;73047;-40
2023/09/13 03:45:04;;;;;;;11.00;8.60;;;;;;;13.91;61.26;99540.73;107388;1256;66299;-41
2023/09/13 03:47:31;;;;;;;14.50;9.20;;;;;;;13.90;61.53;99544.30;107368;1256;72692;-41
2023/09/13 03:49:59;;;;;;;11.10;8.50;;;;;;;13.88;61.55;99544.20;107345;1256;59677;-41
2023/09/13 03:52:27;;;;;;;13.70;8.40;;;;;;;13.86;61.76;99546.59;107292;1256;59604;-41
2023/09/13 03:54:55;;;;;;;12.20;8.60;;;;;;;13.83;61.83;99546.59;107303;1260;73115;-41
2023/09/13 03:57:23;;;;;;;13.40;8.40;;;;;;;13.80;61.76;99544.83;107311;1260;68051;-41
2023/09/13 03:59:50;;;;;;;12.90;8.30;;;;;;;13.79;61.72;99544.30;107444;1254;71492;-41
2023/09/13 04:02:18;;;;;;;13.80;8.60;;;;;;;13.77;61.94;99546.84;107299;1260;60058;-41
2023/09/13 04:04:46;;;;;;;13.10;8.50;;;;;;;13.76;61.90;99545.11;107358;1258;60101;-41
2023/09/13 04:07:13;;;;;;;11.70;7.60;;;;;;;13.80;61.92;99544.30;107461;1253;73046;-41
2023/09/13 04:09:41;;;;;;;11.70;8.20;;;;;;;13.88;61.70;99543.04;107663;1253;67595;-41
2023/09/13 04:12:08;;;;;;;10.60;8.00;;;;;;;13.94;61.63;99545.82;107283;1253;72679;-41
2023/09/13 04:14:36;;;;;;;12.90;8.30;;;;;;;13.98;61.77;99543.89;107540;1253;59619;-41
2023/09/13 04:17:04;;;;;;;13.40;8.60;;;;;;;14.01;61.59;99547.89;107350;1253;60022;-41
2023/09/13 04:19:31;;;;;;;11.30;8.40;;;;;;;14.06;61.61;99553.39;107371;1253;71792;-41
2023/09/13 04:21:59;;;;;;;12.90;8.40;;;;;;;14.10;61.62;99552.95;107414;1253;65309;-41
2023/09/13 04:24:27;;;;;;;14.30;8.50;;;;;;;14.14;61.50;99557.11;107295;1260;72714;-41
2023/09/13 04:26:54;;;;;;;15.00;9.20;;;;;;;14.17;61.49;99561.42;107402;1256;59634;-41
2023/09/13 04:29:22;;;;;;;16.10;9.10;;;;;;;14.19;61.64;99564.62;107356;1253;59510;-41
2023/09/13 04:31:49;;;;;;;13.30;8.90;;;;;;;14.20;61.72;99565.09;107536;1253;72187;-42
2023/09/13 04:34:17;;;;;;;13.20;9.40;;;;;;;14.21;61.63;99573.14;107541;1253;67966;-41
2023/09/13 04:36:45;;;;;;;13.50;9.00;;;;;;;14.23;61.89;99567.06;107381;1258;71511;-41
2023/09/13 04:39:13;;;;;;;12.30;9.00;;;;;;;14.25;61.79;99565.37;107349;1260;59819;-41
2023/09/13 04:41:41;;;;;;;13.80;8.80;;;;;;;14.27;61.70;99567.02;107416;1253;59208;-41
2023/09/13 04:44:10;;;;;;;14.40;8.70;;;;;;;14.32;61.68;99563.55;107401;1253;70605;-41
2023/09/13 04:46:37;;;;;;;17.20;8.40;;;;;;;14.41;61.50;99562.23;107344;1258;67646;-41
2023/09/13 04:49:06;;;;;;;14.80;8.40;;;;;;;14.51;61.36;99565.66;107394;1258;71408;-41
2023/09/13 04:51:34;;;;;;;14.00;9.00;;;;;;;14.59;61.18;99561.65;107406;1253;60009;-41
2023/09/13 04:54:01;;;;;;;18.30;9.10;;;;;;;14.66;60.90;99560.20;107572;1254;60087;-41
2023/09/13 04:56:30;;;;;;;14.90;8.80;;;;;;;14.74;60.76;99561.73;107623;1253;71750;-41
2023/09/13 04:58:58;;;;;;;11.20;8.90;;;;;;;14.82;60.52;99560.14;107313;1253;66778;-41
2023/09/13 05:01:25;;;;;;;14.10;8.20;;;;;;;14.90;60.16;99561.42;107598;1253;71307;-41
2023/09/13 05:03:54;;;;;;;12.80;8.90;;;;;;;14.95;60.08;99563.09;107324;1254;60111;-41
2023/09/13 05:06:22;;;;;;;11.70;8.70;;;;;;;15.01;60.20;99562.95;107618;1253;60059;-41
2023/09/13 05:08:52;;;;;;;12.30;9.50;;;;;;;15.06;60.11;99562.20;107386;1253;71795;-41
2023/09/13 05:11:19;;;;;;;17.30;10.40;;;;;;;15.11;60.10;99559.88;107659;1257;67588;-41
2023/09/13 05:13:47;;;;;;;19.30;11.80;;;;;;;15.15;60.30;99561.05;107538;1253;71522;-41
2023/09/13 05:16:21;;;;;;;15.30;10.50;;;;;;;15.19;60.39;99561.39;107603;1253;60501;-41
2023/09/13 05:18:48;;;;;;;16.50;10.90;;;;;;;15.24;60.22;99561.17;107569;1253;60471;-41
2023/09/13 05:21:16;;;;;;;15.80;9.90;;;;;;;15.30;60.24;99564.77;107398;1253;74220;-41
2023/09/13 05:23:44;;;;;;;15.80;9.80;;;;;;;15.36;60.25;99561.98;107392;1253;67631;-42
2023/09/13 05:26:12;;;;;;;14.70;9.10;;;;;;;15.42;60.22;99563.56;107558;1253;72802;-41
2023/09/13 05:28:40;;;;;;;20.20;9.80;;;;;;;15.49;60.04;99558.90;107540;1259;59452;-41
2023/09/13 05:31:08;;;;;;;13.00;9.00;;;;;;;15.57;59.97;99558.86;107517;1253;60440;-41
2023/09/13 05:33:35;;;;;;;13.40;9.50;;;;;;;15.65;59.77;99557.31;107539;1253;73866;-43
2023/09/13 05:36:10;;;;;;;14.20;9.50;;;;;;;15.71;59.55;99559.42;107554;1253;66391;-42
2023/09/13 05:38:38;;;;;;;13.90;9.40;;;;;;;15.78;59.33;99561.15;107557;1253;71396;-41
2023/09/13 05:41:09;;;;;;;14.90;10.60;;;;;;;15.85;59.36;99563.66;107355;1256;60445;-41
2023/09/13 05:43:40;;;;;;;18.40;11.10;;;;;;;15.92;59.11;99565.46;107542;1253;60571;-41
2023/09/13 05:46:09;;;;;;;20.90;12.00;;;;;;;16.00;59.10;99560.95;107508;1253;73906;-41
2023/09/13 05:48:37;;;;;;;22.70;13.30;;;;;;;16.08;58.67;99557.73;107413;1253;67660;-41
2023/09/13 05:51:05;;;;;;;22.80;14.00;;;;;;;16.18;58.16;99561.71;107390;1259;72767;-41
2023/09/13 05:53:32;;;;;;;27.20;14.50;;;;;;;16.26;57.60;99566.64;107363;1254;60358;-41
2023/09/13 05:56:03;;;;;;;23.30;14.70;;;;;;;16.34;57.08;99561.61;107389;1253;60448;-41
2023/09/13 05:58:31;;;;;;;27.80;14.60;;;;;;;16.43;56.88;99558.95;107382;1253;73676;-42
2023/09/13 06:00:59;;;;;;;29.30;13.80;;;;;;;16.53;56.52;99561.98;107433;1254;67946;-41
2023/09/13 06:03:29;;;;;;;21.80;13.50;;;;;;;16.62;56.49;99559.16;107294;1260;72786;-42
2023/09/13 06:05:56;;;;;;;;;;;;;;;16.71;56.44;99557.91;107392;1258;60451;-41
2023/09/13 06:08:24;;;;;;;19.50;11.60;;;;;;;16.79;55.94;99551.23;107367;1253;60556;-42
2023/09/13 06:10:51;;;;;;;18.10;10.40;;;;;;;16.88;55.81;99555.19;107369;1255;73954;-41
2023/09/13 06:13:19;;;;;;;21.30;10.50;;;;;;;16.99;55.40;99557.57;107383;1259;67558;-41
2023/09/13 06:15:47;;;;;;;16.80;10.20;;;;;;;17.07;55.54;99559.49;107384;1259;72717;-42
2023/09/13 06:18:15;;;;;;;19.60;9.50;;;;;;;17.18;55.38;99565.01;107482;1255;61042;-42
2023/09/13 06:20:43;;;;;;;13.40;9.50;;;;;;;17.27;54.92;99565.52;107417;1258;60065;-42
2023/09/13 06:23:34;;;;;;;14.30;9.30;;;;;;;17.39;54.33;99563.49;107384;1253;73975;-41
2023/09/13 06:26:02;;;;;;;17.10;10.10;;;;;;;17.53;53.74;99564.81;107292;1259;67922;-42
2023/09/13 06:28:32;;;;;;;12.10;9.60;;;;;;;17.64;53.42;99560.86;107357;1258;72839;-42
2023/09/13 06:31:00;;;;;;;14.40;8.80;;;;;;;17.77;53.12;99567.66;107413;1254;60403;-42
2023/09/13 06:33:31;;;;;;;15.60;8.90;;;;;;;17.90;52.67;99563.34;107355;1253;60560;-42
2023/09/13 06:36:09;;;;;;;15.10;8.80;;;;;;;18.05;52.31;99559.95;107342;1259;72535;-42
2023/09/13 06:38:37;;;;;;;14.40;9.50;;;;;;;18.14;52.11;99553.59;107317;1253;67889;-42
2023/09/13 06:41:05;;;;;;;17.30;9.50;;;;;;;18.33;51.40;99559.61;107355;1254;72716;-42
2023/09/13 06:43:33;;;;;;;14.10;9.00;;;;;;;18.49;50.95;99564.17;107391;1254;60366;-42
2023/09/13 06:46:02;;;;;;;16.80;9.70;;;;;;;18.63;50.83;99564.13;107395;1253;60427;-42
2023/09/13 06:48:33;;;;;;;14.50;9.00;;;;;;;18.79;51.04;99564.51;107354;1260;73847;-42
2023/09/13 06:51:03;;;;;;;14.70;8.90;;;;;;;18.94;51.03;99567.48;107467;1253;67554;-43
2023/09/13 06:53:33;;;;;;;15.10;8.30;;;;;;;19.10;50.47;99575.14;107416;1254;72738;-40
2023/09/13 06:56:02;;;;;;;12.80;8.50;;;;;;;19.24;49.07;99568.44;107371;1255;60107;-40
2023/09/13 06:58:35;;;;;;;15.90;8.30;;;;;;;19.37;49.30;99567.87;107399;1258;60998;-40
2023/09/13 07:01:05;;;;;;;14.50;8.60;;;;;;;19.52;48.82;99576.27;107402;1254;72574;-41
2023/09/13 07:03:53;;;;;;;14.20;8.00;;;;;;;19.67;48.08;99574.64;107393;1258;66323;-41
2023/09/13 07:06:30;;;;;;;11.30;7.30;;;;;;;19.80;47.90;99575.70;107383;1256;72159;-41
2023/09/13 07:08:58;;;;;;;15.80;8.90;;;;;;;19.94;47.39;99575.65;107475;1258;60445;-41
2023/09/13 07:11:25;;;;;;;12.60;8.30;;;;;;;20.07;47.38;99576.46;107429;1259;61064;-41
2023/09/13 07:13:55;;;;;;;16.00;7.60;;;;;;;20.19;47.30;99576.48;107458;1254;73878;-42
2023/09/13 07:16:22;;;;;;;13.30;8.10;;;;;;;20.32;46.50;99579.60;107377;1255;68037;-41
2023/09/13 07:18:50;;;;;;;12.70;7.90;;;;;;;20.45;45.68;99582.08;107395;1259;72689;-41
2023/09/13 07:21:18;;;;;;;12.20;7.90;;;;;;;20.55;45.40;99582.60;107385;1254;59217;-41
2023/09/13 07:23:46;;;;;;;11.00;8.10;;;;;;;20.64;45.54;99585.17;107401;1253;60427;-41
2023/09/13 07:26:14;;;;;;;10.20;8.00;;;;;;;20.75;45.00;99580.40;107420;1253;72571;-41
2023/09/13 07:28:41;;;;;;;12.70;8.10;;;;;;;20.85;44.60;99582.27;107362;1254;66433;-42
2023/09/13 07:31:10;;;;;;;11.10;7.20;;;;;;;20.94;44.99;99579.64;107422;1253;71744;-41
2023/09/13 07:33:37;;;;;;;12.70;7.80;;;;;;;21.04;45.15;99578.58;107370;1254;60407;-41
2023/09/13 07:36:05;;;;;;;18.50;8.30;;;;;;;21.15;44.69;99573.02;107398;1253;60027;-41
2023/09/13 07:38:34;;;;;;;12.60;7.80;;;;;;;21.27;44.27;99567.02;107385;1254;73874;-41
2023/09/13 07:41:03;;;;;;;14.70;7.70;;;;;;;21.40;43.97;99565.11;107401;1259;67650;-41
2023/09/13 07:43:31;;;;;;;11.80;7.70;;;;;;;21.53;43.68;99562.77;107379;1255;72681;-41
2023/09/13 07:45:58;;;;;;;13.70;7.70;;;;;;;21.67;43.13;99557.63;107400;1259;60476;-41
2023/09/13 07:48:27;;;;;;;11.40;7.30;;;;;;;21.82;42.57;99554.52;107393;1259;60458;-41
2023/09/13 07:50:55;;;;;;;12.60;7.10;;;;;;;21.98;42.34;99556.21;107438;1253;73210;-41
2023/09/13 07:53:23;;;;;;;13.10;6.90;;;;;;;22.14;41.63;99550.22;107377;1258;67917;-42
2023/09/13 07:55:51;;;;;;;10.30;7.30;;;;;;;22.29;41.40;99549.43;107407;1255;72726;-41
2023/09/13 07:58:18;;;;;;;10.00;7.30;;;;;;;22.45;41.78;99547.52;107459;1254;60581;-42
2023/09/13 08:00:47;;;;;;;10.40;7.50;;;;;;;22.60;41.74;99547.83;107494;1258;60202;-42
2023/09/13 08:03:15;;;;;;;11.30;7.00;;;;;;;22.75;41.48;99546.98;107477;1254;76131;-42
2023/09/13 08:05:45;;;;;;;11.00;7.20;;;;;;;22.89;40.75;99544.52;107466;1254;70185;-42
2023/09/13 08:08:15;;;;;;;10.40;6.30;;;;;;;23.01;40.51;99534.85;107323;1260;70878;-42
2023/09/13 08:10:43;;;;;;;;;;;;;;;23.21;40.17;99540.67;107391;1254;60936;-42
2023/09/13 08:13:10;;;;;;;14.20;6.50;;;;;;;23.35;39.70;99539.78;107440;1254;60438;-42
2023/09/13 08:15:38;;;;;;;13.90;6.50;;;;;;;23.49;39.37;99541.05;107375;1254;73111;-42
2023/09/13 08:18:17;;;;;;;13.20;6.40;;;;;;;23.63;39.09;99540.22;107379;1259;66301;-41
2023/09/13 08:20:44;;;;;;;9.70;6.20;;;;;;;23.76;38.48;99540.11;107413;1254;72735;-41
2023/09/13 08:23:13;;;;;;;9.30;6.00;;;;;;;23.90;38.55;99540.46;107441;1254;60344;-42
2023/09/13 08:25:42;;;;;;;9.30;6.30;;;;;;;24.04;38.57;99544.36;107457;1254;62191;-42
2023/09/13 08:28:10;;;;;;;9.30;6.10;;;;;;;24.17;38.46;99547.17;107539;1254;73935;-42
2023/09/13 08:30:38;;;;;;;9.20;6.00;;;;;;;24.31;38.34;99549.48;107467;1258;68061;-42
2023/09/13 08:33:07;;;;;;;12.20;6.10;;;;;;;24.45;37.66;99546.14;107398;1258;73377;-42
2023/09/13 08:35:35;;;;;;;9.90;6.80;;;;;;;24.54;37.79;99537.20;107467;1255;60569;-42
2023/09/13 08:38:03;;;;;;;10.00;6.50;;;;;;;24.74;36.95;99543.30;107461;1254;62259;-42
2023/09/13 08:40:31;;;;;;;11.00;6.20;;;;;;;24.87;36.74;99548.19;107428;1254;73840;-43
2023/09/13 08:42:59;;;;;;;11.10;6.30;;;;;;;24.99;36.40;99549.08;107495;1259;68055;-42
2023/09/13 08:45:27;;;;;;;10.60;5.80;;;;;;;25.12;35.98;99539.70;107322;1259;71886;-42
2023/09/13 08:48:01;;;;;;;8.70;5.30;;;;;;;25.27;35.84;99538.36;107392;1258;60309;-42
2023/09/13 08:50:30;;;;;;;9.60;5.40;;;;;;;25.42;35.69;99534.92;107455;1254;60411;-41
2023/09/13 08:52:58;;;;;;;8.70;5.60;;;;;;;25.59;35.31;99536.49;107461;1254;76155;-42
2023/09/13 08:55:26;;;;;;;8.70;6.10;;;;;;;25.76;34.95;99539.77;107467;1258;68098;-42
2023/09/13 08:57:57;;;;;;;9.00;5.60;;;;;;;25.91;34.40;99533.76;107292;1257;74957;-42
2023/09/13 09:00:26;;;;;;;9.30;5.50;;;;;;;26.05;34.00;99533.11;107423;1258;60331;-42
2023/09/13 09:02:59;;;;;;;8.80;5.10;;;;;;;26.20;33.85;99533.62;107454;1254;60465;-42
2023/09/13 09:05:29;;;;;;;10.20;4.70;;;;;;;26.37;33.25;99529.17;107457;1254;72541;-42
2023/09/13 09:07:57;;;;;;;8.90;5.30;;;;;;;26.53;32.16;99531.59;107304;1254;66845;-42
2023/09/13 09:10:25;;;;;;;12.40;5.90;;;;;;;26.63;32.30;99525.09;107468;1254;72673;-42
2023/09/13 09:12:55;;;;;;;11.80;5.80;;;;;;;26.73;32.72;99528.09;107406;1254;61538;-42
2023/09/13 09:15:24;;;;;;;11.80;5.90;;;;;;;26.87;33.08;99528.91;107430;1255;60307;-42
2023/09/13 09:17:53;;;;;;;17.90;6.00;;;;;;;27.02;32.85;99527.61;107384;1254;73888;-42
2023/09/13 09:20:24;;;;;;;9.40;5.50;;;;;;;27.17;32.61;99524.48;107470;1254;66282;-42
2023/09/13 09:22:51;;;;;;;10.10;5.30;;;;;;;27.37;32.25;99517.39;107422;1254;74760;-42
2023/09/13 09:25:19;;;;;;;8.00;4.70;;;;;;;27.55;32.13;99517.10;107472;1254;60569;-42
2023/09/13 09:27:47;;;;;;;12.50;5.30;;;;;;;27.69;30.74;99516.82;107304;1260;60349;-42
2023/09/13 09:30:15;;;;;;;7.30;4.10;;;;;;;27.81;30.34;99506.69;107445;1254;73920;-42
2023/09/13 09:32:46;;;;;;;13.70;4.70;;;;;;;27.95;30.14;99505.17;107478;1258;67437;-42
2023/09/13 09:35:15;;;;;;;9.20;4.20;;;;;;;28.12;29.62;99506.51;107480;1254;72696;-42
2023/09/13 09:37:44;;;;;;;8.00;4.60;;;;;;;28.26;29.33;99503.82;107437;1254;60450;-42
2023/09/13 09:40:14;;;;;;;8.60;4.40;;;;;;;28.40;28.77;99500.86;107469;1254;60545;-42
2023/09/13 09:42:42;;;;;;;8.60;4.60;;;;;;;28.52;28.53;99501.95;107443;1254;73928;-42
2023/09/13 09:45:10;;;;;;;7.10;4.40;;;;;;;28.62;28.82;99503.60;107454;1254;67758;-42
2023/09/13 09:47:38;;;;;;;9.90;4.50;;;;;;;28.69;27.96;99503.23;107200;1255;72703;-42
2023/09/13 09:50:10;;;;;;;8.40;4.10;;;;;;;28.73;28.10;99500.39;107396;1260;61478;-42
2023/09/13 09:52:38;;;;;;;8.20;4.60;;;;;;;28.81;27.76;99503.02;107318;1254;60491;-42
2023/09/13 09:55:06;;;;;;;9.40;4.50;;;;;;;28.88;27.60;99503.81;107272;1254;72721;-42
2023/09/13 09:57:34;;;;;;;12.70;4.70;;;;;;;28.98;27.41;99499.71;107460;1254;66308;-42
2023/09/13 10:00:07;;;;;;;8.30;4.10;;;;;;;29.10;27.19;99496.83;107431;1254;72077;-42
2023/09/13 10:02:36;;;;;;;5.60;3.90;;;;;;;29.24;26.41;99492.89;107348;1254;60423;-42
2023/09/13 10:05:05;;;;;;;6.30;4.30;;;;;;;29.38;26.62;99499.93;107311;1253;60299;-42
2023/09/13 10:07:57;;;;;;;10.60;3.90;;;;;;;29.45;25.62;99487.64;107544;1254;73691;-42
2023/09/13 10:10:33;;;;;;;6.30;4.00;;;;;;;29.41;25.62;99486.58;107484;1254;67872;-42
2023/09/13 10:13:03;;;;;;;7.80;4.10;;;;;;;29.40;26.30;99488.09;107451;1256;71834;-42
2023/09/13 10:15:32;;;;;;;7.80;3.70;;;;;;;29.49;26.11;99485.07;107465;1253;60463;-42
2023/09/13 10:18:01;;;;;;;8.30;3.90;;;;;;;29.63;25.79;99483.96;107425;1254;60560;-42
2023/09/13 10:20:30;;;;;;;7.40;4.60;;;;;;;29.72;25.64;99484.20;107516;1253;73920;-42
2023/09/13 10:22:58;;;;;;;9.40;3.90;;;;;;;29.82;25.47;99485.48;107275;1254;68151;-43
2023/09/13 10:25:27;;;;;;;13.60;3.80;;;;;;;29.88;25.28;99490.66;107212;1254;72712;-43
2023/09/13 10:27:55;;;;;;;8.20;3.90;;;;;;;29.78;25.02;99484.13;107470;1254;61888;-43
2023/09/13 10:30:24;;;;;;;7.00;3.80;;;;;;;29.75;25.02;99487.34;107463;1254;62047;-42
2023/09/13 10:32:53;;;;;;;;;;;;;;;29.73;24.95;99485.73;107482;1254;72698;-43
2023/09/13 10:35:21;;;;;;;10.50;3.60;;;;;;;29.76;25.37;99481.75;107371;1254;68056;-43
2023/09/13 10:37:52;;;;;;;10.10;3.90;;;;;;;29.85;25.11;99475.77;107291;1254;72700;-43
2023/09/13 10:40:37;;;;;;;9.30;3.90;;;;;;;29.99;25.45;99479.34;107478;1254;60333;-43
2023/09/13 10:43:05;;;;;;;8.90;4.00;;;;;;;30.20;24.77;99475.84;107490;1254;62382;-43
2023/09/13 10:45:33;;;;;;;6.00;3.50;;;;;;;30.31;24.78;99472.36;107557;1254;74359;-43
2023/09/13 10:48:03;;;;;;;8.20;3.90;;;;;;;30.40;24.91;99471.95;107341;1254;68035;-43
2023/09/13 10:50:31;;;;;;;8.20;3.40;;;;;;;30.45;25.46;99472.50;107295;1254;75242;-43
2023/09/13 10:53:00;;;;;;;7.00;3.40;;;;;;;30.46;25.46;99473.60;107497;1258;62358;-43
2023/09/13 10:55:28;;;;;;;14.90;3.60;;;;;;;30.48;25.99;99464.95;107537;1254;60130;-43
2023/09/13 10:57:56;;;;;;;6.90;3.70;;;;;;;30.54;25.07;99463.83;107316;1253;76422;-43
2023/09/13 11:00:24;;;;;;;8.20;3.70;;;;;;;30.52;25.48;99462.09;107306;1254;67755;-43
2023/09/13 11:02:52;;;;;;;6.70;3.50;;;;;;;30.61;25.80;99457.55;107461;1253;72671;-43
2023/09/13 11:05:19;;;;;;;8.60;3.60;;;;;;;30.84;25.65;99454.09;107288;1254;60417;-44
2023/09/13 11:07:48;;;;;;;8.50;3.60;;;;;;;31.14;24.99;99447.64;107301;1254;60397;-43
2023/09/13 11:10:17;;;;;;;10.00;3.70;;;;;;;31.34;24.49;99452.48;107448;1254;73093;-43
2023/09/13 11:12:50;;;;;;;5.80;3.60;;;;;;;31.51;24.43;99444.83;107489;1254;67321;-43
2023/09/13 11:15:24;;;;;;;6.10;3.90;;;;;;;31.72;24.04;99438.50;107480;1254;72765;-44
2023/09/13 11:17:53;;;;;;;11.30;4.00;;;;;;;31.88;23.72;99440.30;107427;1254;60154;-44
2023/09/13 11:20:36;;;;;;;7.20;3.40;;;;;;;32.00;23.17;99439.74;107491;1253;61110;-43
2023/09/13 11:23:05;;;;;;;10.40;3.50;;;;;;;32.13;23.93;99430.06;107446;1254;73883;-43
2023/09/13 11:25:53;;;;;;;4.50;3.30;;;;;;;32.38;23.55;99430.40;107478;1254;67899;-44
2023/09/13 11:28:36;;;;;;;8.50;3.50;;;;;;;32.71;22.94;99433.84;107442;1254;72699;-44
2023/09/13 11:31:05;;;;;;;5.80;3.10;;;;;;;32.99;22.94;99433.02;107452;1256;62191;-44